Vocklabruck, Austria
Current Conditions -  °F | °C
As of 8:20 AM on Wednesday 22 Oct 2014 (Local Time) from LOWL Reporting Station
Scattered Clouds Scattered Clouds  
Wind Chill: 39°   Ceiling: Unl
Heat Index: 46°   Visibility: 6mi
Dew Point: 37°   Wind: 22mph
Humidity: 71%   Direction: 270°W
Pressure: 29.85"   Gusts: NA
Location:  48.01°N, 13.65°E
Report Text: LOWL 220620Z 27019KT 9999 SCT024 SCT060 08/03 Q1011 NOSIG
Loading
Personal Weather Stations






























Interactive Weather Map
Tropical Storm Tracking
New forecast layout! Learn more

10-Day Weather Forecast

Advertisements
Track Severe Weather on mobile